createdAt,value
2018-09-15T00:00:37.671Z,52.30
2018-09-15T00:03:06.302Z,52.30
2018-09-15T00:05:34.873Z,52.70
2018-09-15T00:08:03.448Z,52.80
2018-09-15T00:10:31.977Z,52.90
2018-09-15T00:13:00.566Z,52.70
2018-09-15T00:15:29.118Z,52.70
2018-09-15T00:17:58.698Z,52.70
2018-09-15T00:20:27.265Z,52.60
2018-09-15T00:22:55.829Z,52.50
2018-09-15T00:25:24.431Z,51.80
2018-09-15T00:27:53.034Z,52.20
2018-09-15T00:30:21.592Z,52.20
2018-09-15T00:32:50.154Z,51.90
2018-09-15T00:35:20.001Z,52.70
2018-09-15T00:37:48.549Z,52.80
2018-09-15T00:40:17.103Z,53.40
2018-09-15T00:42:45.800Z,53.70
2018-09-15T00:45:14.342Z,53.80
2018-09-15T00:47:42.893Z,53.70
2018-09-15T00:50:11.462Z,53.90
2018-09-15T00:52:40.033Z,54.10
2018-09-15T00:55:08.569Z,54.80
2018-09-15T00:57:37.216Z,55.10
2018-09-15T01:00:07.128Z,54.90
2018-09-15T01:02:35.927Z,54.90
2018-09-15T01:05:04.690Z,54.80
2018-09-15T01:07:33.244Z,55.50
2018-09-15T01:10:01.937Z,55.70
2018-09-15T01:12:30.490Z,55.50
2018-09-15T01:14:59.028Z,55.50
2018-09-15T01:17:27.614Z,55.10
2018-09-15T01:19:56.448Z,55.30
2018-09-15T01:22:25.024Z,55.40
2018-09-15T01:24:53.585Z,55.80
2018-09-15T01:27:22.116Z,56.50
2018-09-15T01:29:50.690Z,56.60
2018-09-15T01:32:19.243Z,56.50
2018-09-15T01:34:47.866Z,56.20
2018-09-15T01:37:16.381Z,55.80
2018-09-15T01:39:44.945Z,55.30
2018-09-15T01:42:13.462Z,55.40
2018-09-15T01:44:41.994Z,56.00
2018-09-15T01:47:10.525Z,57.20
2018-09-15T01:49:39.159Z,57.80
2018-09-15T01:52:07.732Z,57.90
2018-09-15T01:54:36.284Z,58.10
2018-09-15T01:57:04.824Z,58.30
2018-09-15T01:59:33.437Z,59.10
2018-09-15T02:02:02.000Z,59.30
2018-09-15T02:04:30.560Z,59.40
2018-09-15T02:06:59.097Z,59.30
2018-09-15T02:09:27.621Z,59.30
2018-09-15T02:11:56.175Z,59.70
2018-09-15T02:14:24.769Z,60.10
2018-09-15T02:16:53.317Z,60.30
2018-09-15T02:19:21.866Z,60.00
2018-09-15T02:21:50.393Z,60.20
2018-09-15T02:24:18.931Z,60.10
2018-09-15T02:26:47.450Z,60.40
2018-09-15T02:29:16.058Z,61.80
2018-09-15T02:31:44.608Z,61.90
2018-09-15T02:34:13.182Z,62.20
2018-09-15T02:36:41.779Z,62.10
2018-09-15T02:39:11.053Z,61.80
2018-09-15T02:41:39.611Z,62.80
2018-09-15T02:44:08.208Z,62.90
2018-09-15T02:46:36.799Z,63.30
2018-09-15T02:49:05.348Z,63.90
2018-09-15T02:51:33.953Z,63.40
2018-09-15T02:54:02.496Z,63.20
2018-09-15T02:56:31.081Z,62.70
2018-09-15T02:58:59.641Z,63.60
2018-09-15T03:01:28.205Z,64.40
2018-09-15T03:03:56.767Z,64.80
2018-09-15T03:06:25.347Z,65.10
2018-09-15T03:08:53.873Z,65.30
2018-09-15T03:11:22.434Z,65.20
2018-09-15T03:13:51.002Z,65.10
2018-09-15T03:16:19.552Z,64.80
2018-09-15T03:18:48.117Z,65.10
2018-09-15T03:21:16.655Z,65.00
2018-09-15T03:23:45.188Z,64.90
2018-09-15T03:26:13.821Z,65.30
2018-09-15T03:28:42.542Z,65.70
2018-09-15T03:31:11.183Z,65.90
2018-09-15T03:33:39.831Z,65.70
2018-09-15T03:36:08.396Z,66.30
2018-09-15T03:38:36.929Z,67.20
2018-09-15T03:41:05.509Z,67.90
2018-09-15T03:43:34.046Z,68.90
2018-09-15T03:46:02.653Z,69.30
2018-09-15T03:48:31.194Z,70.00
2018-09-15T03:50:59.822Z,69.90
2018-09-15T03:53:28.386Z,70.20
2018-09-15T03:55:56.937Z,70.00
2018-09-15T03:58:25.466Z,69.10
2018-09-15T04:00:53.987Z,69.10
2018-09-15T04:03:23.104Z,69.10
2018-09-15T04:05:51.683Z,69.20
2018-09-15T04:08:20.966Z,69.00
2018-09-15T04:10:50.140Z,68.90
2018-09-15T04:13:20.078Z,69.00
2018-09-15T04:15:49.031Z,69.20
2018-09-15T04:18:17.729Z,68.60
2018-09-15T04:20:47.890Z,68.20
2018-09-15T04:23:17.337Z,68.10
2018-09-15T04:25:46.336Z,68.90
2018-09-15T04:28:15.078Z,69.30
2018-09-15T04:30:43.667Z,68.60
2018-09-15T04:33:12.258Z,69.20
2018-09-15T04:35:41.134Z,69.40
2018-09-15T04:38:09.723Z,69.30
2018-09-15T04:40:38.286Z,68.80
2018-09-15T04:43:06.890Z,68.50
2018-09-15T04:45:35.425Z,69.20
2018-09-15T04:48:03.997Z,69.10
2018-09-15T04:50:32.634Z,69.70
2018-09-15T04:53:01.234Z,69.60
2018-09-15T04:55:29.799Z,68.80
2018-09-15T04:57:58.362Z,68.80
2018-09-15T05:00:26.905Z,69.80
2018-09-15T05:03:01.684Z,69.40
2018-09-15T05:05:30.380Z,69.80
2018-09-15T05:07:58.961Z,70.50
2018-09-15T05:10:28.002Z,70.80
2018-09-15T05:12:56.804Z,71.80
2018-09-15T05:15:25.370Z,72.00
2018-09-15T05:17:54.359Z,72.40
2018-09-15T05:20:22.941Z,72.70
2018-09-15T05:22:51.713Z,73.60
2018-09-15T05:25:20.284Z,73.50
2018-09-15T05:27:48.954Z,73.20
2018-09-15T05:30:17.530Z,72.40
2018-09-15T05:32:46.110Z,71.70
2018-09-15T05:35:14.689Z,72.20
2018-09-15T05:37:43.345Z,72.80
2018-09-15T05:40:11.900Z,72.50
2018-09-15T05:42:40.461Z,72.90
2018-09-15T05:45:09.635Z,72.50
2018-09-15T05:47:38.964Z,72.60
2018-09-15T05:50:07.588Z,73.30
2018-09-15T05:52:36.158Z,73.00
2018-09-15T05:55:04.921Z,72.80
2018-09-15T05:57:33.439Z,73.00
2018-09-15T06:00:02.095Z,73.10
2018-09-15T06:02:31.050Z,72.90
2018-09-15T06:04:59.922Z,73.60
2018-09-15T06:07:28.643Z,73.80
2018-09-15T06:09:57.195Z,73.60
2018-09-15T06:12:25.758Z,73.20
2018-09-15T06:14:54.447Z,73.30
2018-09-15T06:17:23.948Z,72.80
2018-09-15T06:19:52.654Z,72.40
2018-09-15T06:22:21.281Z,73.10
2018-09-15T06:24:50.188Z,73.40
2018-09-15T06:27:18.754Z,73.20
2018-09-15T06:29:47.331Z,73.10
2018-09-15T06:32:15.954Z,73.40
2018-09-15T06:34:44.541Z,73.20
2018-09-15T06:37:13.077Z,72.70
2018-09-15T06:39:42.562Z,73.00
2018-09-15T06:42:11.317Z,72.70
2018-09-15T06:44:39.998Z,72.10
2018-09-15T06:47:08.617Z,71.70
2018-09-15T06:49:37.303Z,71.00
2018-09-15T06:52:05.939Z,71.00
2018-09-15T06:54:36.047Z,71.60
2018-09-15T06:57:04.770Z,70.80
2018-09-15T06:59:34.731Z,70.60
2018-09-15T07:02:03.809Z,70.30
2018-09-15T07:04:32.534Z,70.00
2018-09-15T07:07:01.896Z,69.50
2018-09-15T07:09:30.440Z,69.60
2018-09-15T07:11:59.006Z,69.30
2018-09-15T07:14:28.611Z,69.20
2018-09-15T07:16:57.320Z,68.80
2018-09-15T07:19:25.879Z,68.50
2018-09-15T07:21:54.522Z,67.70
2018-09-15T07:24:23.208Z,67.40
2018-09-15T07:26:51.802Z,66.90
2018-09-15T07:29:20.377Z,66.90
2018-09-15T07:31:49.043Z,66.70
2018-09-15T07:34:17.681Z,66.30
2018-09-15T07:36:46.291Z,66.00
2018-09-15T07:39:15.149Z,66.20
2018-09-15T07:41:43.695Z,65.20
2018-09-15T07:44:12.232Z,65.30
2018-09-15T07:46:40.810Z,65.10
2018-09-15T07:49:09.371Z,64.90
2018-09-15T07:51:38.038Z,64.30
2018-09-15T07:54:07.258Z,63.90
2018-09-15T07:56:35.826Z,62.60
2018-09-15T07:59:04.413Z,62.20
2018-09-15T08:01:33.046Z,61.20
2018-09-15T08:04:01.762Z,60.30
2018-09-15T08:06:30.353Z,60.70
2018-09-15T08:08:58.908Z,60.70
2018-09-15T08:11:27.459Z,60.50
2018-09-15T08:13:56.074Z,60.20
2018-09-15T08:16:24.657Z,59.60
2018-09-15T08:18:53.243Z,59.90
2018-09-15T08:21:21.823Z,59.20
2018-09-15T08:23:50.447Z,59.00
2018-09-15T08:26:19.426Z,58.60
2018-09-15T08:28:47.982Z,58.60
2018-09-15T08:31:16.530Z,58.00
2018-09-15T08:33:45.067Z,57.80
2018-09-15T08:36:13.610Z,58.10
2018-09-15T08:38:42.124Z,57.50
2018-09-15T08:41:10.731Z,56.50
2018-09-15T08:43:39.324Z,56.50
2018-09-15T08:46:07.877Z,56.00
2018-09-15T08:48:36.502Z,55.50
2018-09-15T08:51:05.171Z,55.20
2018-09-15T08:53:33.838Z,55.80
2018-09-15T08:56:02.541Z,55.40
2018-09-15T08:58:31.170Z,54.90
2018-09-15T09:00:59.807Z,54.20
2018-09-15T09:03:28.516Z,53.40
2018-09-15T09:05:57.099Z,53.40
2018-09-15T09:08:25.814Z,52.90
2018-09-15T09:10:56.431Z,53.20
2018-09-15T09:13:25.615Z,51.20
2018-09-15T09:15:54.198Z,51.60
2018-09-15T09:18:22.775Z,50.10
2018-09-15T09:20:51.509Z,47.40
2018-09-15T09:23:20.163Z,47.00
2018-09-15T09:25:48.798Z,46.30
2018-09-15T09:28:17.408Z,46.30
2018-09-15T09:30:46.012Z,47.60
2018-09-15T09:33:14.588Z,46.50
2018-09-15T09:35:43.150Z,45.40
2018-09-15T09:38:11.766Z,45.10
2018-09-15T09:40:40.470Z,43.90
2018-09-15T09:43:09.220Z,43.50
2018-09-15T09:45:37.938Z,42.70
2018-09-15T09:48:06.682Z,43.20
2018-09-15T09:50:36.616Z,44.30
2018-09-15T09:53:05.171Z,43.20
2018-09-15T09:55:33.769Z,41.10
2018-09-15T09:58:10.699Z,39.70
2018-09-15T10:00:44.545Z,40.40
2018-09-15T10:03:13.127Z,40.00
2018-09-15T10:05:41.734Z,39.00
2018-09-15T10:08:10.355Z,39.00
2018-09-15T10:10:38.962Z,38.70
2018-09-15T10:13:07.530Z,39.00
2018-09-15T10:15:36.168Z,38.10
2018-09-15T10:18:04.787Z,38.80
2018-09-15T10:20:33.454Z,39.10
2018-09-15T10:23:02.114Z,39.10
2018-09-15T10:25:30.734Z,39.80
2018-09-15T10:27:59.395Z,39.50
2018-09-15T10:30:28.069Z,39.40
2018-09-15T10:32:56.687Z,40.00
2018-09-15T10:35:25.291Z,40.20
2018-09-15T10:37:53.982Z,40.30
2018-09-15T10:40:23.401Z,39.80
2018-09-15T10:42:52.004Z,40.60
2018-09-15T10:45:21.364Z,41.10
2018-09-15T10:47:50.506Z,40.30
2018-09-15T10:50:19.806Z,39.40
2018-09-15T10:52:48.482Z,39.60
2018-09-15T10:55:17.071Z,40.60
2018-09-15T10:57:45.914Z,40.20
2018-09-15T11:00:14.575Z,40.40
2018-09-15T11:02:43.079Z,41.30
2018-09-15T11:05:11.640Z,41.90
2018-09-15T11:07:40.194Z,42.50
2018-09-15T11:10:09.239Z,42.90
2018-09-15T11:12:37.925Z,42.60
2018-09-15T11:15:06.520Z,42.50
2018-09-15T11:17:35.120Z,43.50
2018-09-15T11:20:03.797Z,43.90
2018-09-15T11:22:32.829Z,43.80
2018-09-15T11:25:02.410Z,43.70
2018-09-15T11:27:31.034Z,43.40
2018-09-15T11:29:59.741Z,43.00
2018-09-15T11:32:29.240Z,42.50
2018-09-15T11:34:57.977Z,42.00
2018-09-15T11:37:26.875Z,41.90
2018-09-15T11:39:56.398Z,42.70
2018-09-15T11:42:25.019Z,42.00
2018-09-15T11:44:53.761Z,41.80
2018-09-15T11:47:22.346Z,41.90
2018-09-15T11:49:50.929Z,42.20
2018-09-15T11:52:19.530Z,42.20
2018-09-15T11:54:48.079Z,42.20
2018-09-15T11:57:16.696Z,41.90
2018-09-15T11:59:45.237Z,42.00
2018-09-15T12:02:14.052Z,42.00
2018-09-15T12:04:42.785Z,42.00
2018-09-15T12:07:11.393Z,40.80
2018-09-15T12:09:40.865Z,40.90
2018-09-15T12:12:09.845Z,41.00
2018-09-15T12:14:38.418Z,41.00
2018-09-15T12:17:07.001Z,40.50
2018-09-15T12:19:35.687Z,40.00
2018-09-15T12:22:17.666Z,40.20
2018-09-15T12:24:48.120Z,41.10
2018-09-15T12:27:16.950Z,40.90
2018-09-15T12:29:45.613Z,40.20
2018-09-15T12:32:16.574Z,40.90
2018-09-15T12:34:45.926Z,40.50
2018-09-15T12:37:14.593Z,41.20
2018-09-15T12:39:43.164Z,40.30
2018-09-15T12:42:13.521Z,39.80
2018-09-15T12:44:42.596Z,40.10
2018-09-15T12:47:12.076Z,38.90
2018-09-15T12:49:42.034Z,38.30
2018-09-15T12:52:10.866Z,38.20
2018-09-15T12:54:39.432Z,39.60
2018-09-15T12:57:08.425Z,39.40
2018-09-15T12:59:37.940Z,39.60
2018-09-15T13:02:06.605Z,40.00
2018-09-15T13:04:35.326Z,39.70
2018-09-15T13:07:04.012Z,39.80
2018-09-15T13:09:32.643Z,40.00
2018-09-15T13:12:01.266Z,39.20
2018-09-15T13:14:29.998Z,38.70
2018-09-15T13:16:58.797Z,38.70
2018-09-15T13:19:27.631Z,38.60
2018-09-15T13:21:57.418Z,39.10
2018-09-15T13:24:26.959Z,39.60
2018-09-15T13:26:55.549Z,39.60
2018-09-15T13:29:24.752Z,39.40
2018-09-15T13:31:53.323Z,39.00
2018-09-15T13:34:22.090Z,38.00
2018-09-15T13:36:51.296Z,39.00
2018-09-15T13:39:19.869Z,38.70
2018-09-15T13:41:48.426Z,38.50
2018-09-15T13:44:17.078Z,38.00
2018-09-15T13:46:45.732Z,36.90
2018-09-15T13:49:14.270Z,35.60
2018-09-15T13:51:43.285Z,35.40
2018-09-15T13:54:12.667Z,34.60
2018-09-15T13:56:41.386Z,33.40
2018-09-15T13:59:09.962Z,30.10
2018-09-15T14:01:38.539Z,28.60
2018-09-15T14:04:07.190Z,26.60
2018-09-15T14:06:35.763Z,25.90
2018-09-15T14:09:05.737Z,27.90
2018-09-15T14:11:34.370Z,29.70
2018-09-15T14:14:02.931Z,31.80
2018-09-15T14:16:31.635Z,33.00
2018-09-15T14:19:02.742Z,34.10
2018-09-15T14:21:32.139Z,33.80
2018-09-15T14:24:00.710Z,33.80
2018-09-15T14:26:29.279Z,34.50
2018-09-15T14:28:57.831Z,34.00
2018-09-15T14:31:26.400Z,32.20
2018-09-15T14:33:55.661Z,32.40
2018-09-15T14:36:24.265Z,32.80
2018-09-15T14:38:55.657Z,34.10
2018-09-15T14:41:24.275Z,33.50
2018-09-15T14:43:52.880Z,34.90
2018-09-15T14:46:22.020Z,34.00
2018-09-15T14:48:50.552Z,34.60
2018-09-15T14:51:20.131Z,35.10
2018-09-15T14:53:48.651Z,33.90
2018-09-15T14:56:17.308Z,33.10
2018-09-15T14:58:45.849Z,32.70
2018-09-15T15:01:14.396Z,33.00
2018-09-15T15:03:42.966Z,33.00
2018-09-15T15:06:11.605Z,31.70
2018-09-15T15:08:40.116Z,31.20
2018-09-15T15:11:09.727Z,30.10
2018-09-15T15:13:38.265Z,29.00
2018-09-15T15:16:07.446Z,29.20
2018-09-15T15:18:36.019Z,30.30
2018-09-15T15:21:04.589Z,30.20
2018-09-15T15:23:34.022Z,31.20
2018-09-15T15:26:02.656Z,32.40
2018-09-15T15:28:31.186Z,33.00
2018-09-15T15:30:59.735Z,33.80
2018-09-15T15:33:28.263Z,34.90
2018-09-15T15:35:56.790Z,34.90
2018-09-15T15:38:25.320Z,34.50
2018-09-15T15:40:53.889Z,35.60
2018-09-15T15:43:22.403Z,34.80
2018-09-15T15:45:50.957Z,35.30
2018-09-15T15:48:19.503Z,35.10
2018-09-15T15:50:48.034Z,35.70
2018-09-15T15:53:16.524Z,36.30
2018-09-15T15:55:45.104Z,36.80
2018-09-15T15:58:13.722Z,36.60
2018-09-15T16:00:42.237Z,36.40
2018-09-15T16:03:10.884Z,36.00
2018-09-15T16:05:39.461Z,36.10
2018-09-15T16:08:08.011Z,36.10
2018-09-15T16:10:36.498Z,35.70
2018-09-15T16:13:05.071Z,35.70
2018-09-15T16:15:33.826Z,36.20
2018-09-15T16:18:02.373Z,36.60
2018-09-15T16:20:30.902Z,37.40
2018-09-15T16:22:59.448Z,38.20
2018-09-15T16:25:28.023Z,38.30
2018-09-15T16:27:56.555Z,38.50
2018-09-15T16:30:25.108Z,39.00
2018-09-15T16:32:53.634Z,39.20
2018-09-15T16:35:22.122Z,39.10
2018-09-15T16:37:50.637Z,39.10
2018-09-15T16:40:19.153Z,38.80
2018-09-15T16:42:47.742Z,38.80
2018-09-15T16:45:16.264Z,39.30
2018-09-15T16:47:44.797Z,39.80
2018-09-15T16:50:13.319Z,40.20
2018-09-15T16:52:41.898Z,40.70
2018-09-15T16:55:10.506Z,41.10
2018-09-15T16:57:39.030Z,41.20
2018-09-15T17:00:07.649Z,41.60
2018-09-15T17:02:36.165Z,41.70
2018-09-15T17:05:04.694Z,41.90
2018-09-15T17:07:33.253Z,42.10
2018-09-15T17:10:01.829Z,41.80
2018-09-15T17:12:30.394Z,42.10
2018-09-15T17:14:58.941Z,42.30
2018-09-15T17:17:27.450Z,42.30
2018-09-15T17:19:56.035Z,42.30
2018-09-15T17:22:24.668Z,43.20
2018-09-15T17:24:53.186Z,42.30
2018-09-15T17:27:21.762Z,42.80
2018-09-15T17:29:50.473Z,42.80
2018-09-15T17:32:19.170Z,42.90
2018-09-15T17:34:47.814Z,43.10
2018-09-15T17:37:17.166Z,43.40
2018-09-15T17:39:45.753Z,43.00
2018-09-15T17:42:14.238Z,43.10
2018-09-15T17:44:42.774Z,42.70
2018-09-15T17:47:11.282Z,42.90
2018-09-15T17:49:39.834Z,43.60
2018-09-15T17:52:08.324Z,43.50
2018-09-15T17:54:36.876Z,43.50
2018-09-15T17:57:05.538Z,43.60
2018-09-15T17:59:34.054Z,43.80
2018-09-15T18:02:02.580Z,44.00
2018-09-15T18:04:31.090Z,44.00
2018-09-15T18:06:59.595Z,43.90
2018-09-15T18:09:28.132Z,44.70
2018-09-15T18:11:56.623Z,45.00
2018-09-15T18:14:25.139Z,45.20
2018-09-15T18:16:53.626Z,45.30
2018-09-15T18:19:22.156Z,45.60
2018-09-15T18:21:50.678Z,45.70
2018-09-15T18:24:19.220Z,46.40
2018-09-15T18:26:47.748Z,46.90
2018-09-15T18:29:16.423Z,47.60
2018-09-15T18:31:44.943Z,47.40
2018-09-15T18:34:13.471Z,47.50
2018-09-15T18:36:42.098Z,47.80
2018-09-15T18:39:11.266Z,48.30
2018-09-15T18:41:39.981Z,48.70
2018-09-15T18:44:08.490Z,49.00
2018-09-15T18:46:37.011Z,49.40
2018-09-15T18:49:05.929Z,49.50
2018-09-15T18:51:34.499Z,49.60
2018-09-15T18:54:03.443Z,49.90
2018-09-15T18:56:32.019Z,50.60
2018-09-15T18:59:00.470Z,51.10
2018-09-15T19:01:28.996Z,50.90
2018-09-15T19:03:57.494Z,51.20
2018-09-15T19:06:26.014Z,51.50
2018-09-15T19:08:54.518Z,51.90
2018-09-15T19:11:23.039Z,52.20
2018-09-15T19:13:51.538Z,53.00
2018-09-15T19:16:20.037Z,53.10
2018-09-15T19:18:48.552Z,52.90
2018-09-15T19:21:17.128Z,53.30
2018-09-15T19:23:45.598Z,53.50
2018-09-15T19:26:14.170Z,53.70
2018-09-15T19:28:42.701Z,53.50
2018-09-15T19:31:12.021Z,53.30
2018-09-15T19:33:40.546Z,53.30
2018-09-15T19:36:09.054Z,53.00
2018-09-15T19:38:37.564Z,53.20
2018-09-15T19:41:06.114Z,53.60
2018-09-15T19:43:35.448Z,54.10
2018-09-15T19:46:03.995Z,54.10
2018-09-15T19:48:35.597Z,54.10
2018-09-15T19:51:04.107Z,54.00
2018-09-15T19:53:32.632Z,54.00
2018-09-15T19:56:01.126Z,54.10
2018-09-15T19:58:29.659Z,54.50
2018-09-15T20:00:58.158Z,54.80
2018-09-15T20:03:27.508Z,56.40
2018-09-15T20:05:56.048Z,56.10
2018-09-15T20:08:24.604Z,56.50
2018-09-15T20:10:53.629Z,56.60
2018-09-15T20:13:22.138Z,56.90
2018-09-15T20:15:49.526Z,57.30
2018-09-15T20:18:17.095Z,58.30
2018-09-15T20:20:44.441Z,58.80
2018-09-15T20:23:12.941Z,58.90
2018-09-15T20:25:41.574Z,59.00
2018-09-15T20:28:10.158Z,58.90
2018-09-15T20:30:38.637Z,58.80
2018-09-15T20:33:07.284Z,59.00
2018-09-15T20:35:36.014Z,58.90
2018-09-15T20:38:05.147Z,58.90
2018-09-15T20:40:34.964Z,58.70
2018-09-15T20:43:07.965Z,58.50
2018-09-15T20:45:37.330Z,58.60
2018-09-15T20:48:07.512Z,58.60
2018-09-15T20:50:39.960Z,58.90
2018-09-15T20:53:09.399Z,59.20
2018-09-15T20:55:38.150Z,58.90
2018-09-15T20:58:06.745Z,58.70
2018-09-15T21:00:40.227Z,58.50
2018-09-15T21:03:09.581Z,58.20
2018-09-15T21:05:38.532Z,58.10
2018-09-15T21:08:07.155Z,58.10
2018-09-15T21:10:38.065Z,59.00
2018-09-15T21:13:08.518Z,60.20
2018-09-15T21:15:44.574Z,59.60
2018-09-15T21:18:13.146Z,60.10
2018-09-15T21:20:42.051Z,60.60
2018-09-15T21:23:11.205Z,61.20
2018-09-15T21:25:42.083Z,61.40
2018-09-15T21:28:10.982Z,61.40
2018-09-15T21:30:39.562Z,61.60
2018-09-15T21:33:08.727Z,61.40
2018-09-15T21:35:38.581Z,62.10
2018-09-15T21:38:07.250Z,62.70
2018-09-15T21:40:37.211Z,62.90
2018-09-15T21:43:07.144Z,62.60
2018-09-15T21:45:35.677Z,63.30
2018-09-15T21:48:05.305Z,64.60
2018-09-15T21:50:33.999Z,63.80
2018-09-15T21:53:02.565Z,64.30
2018-09-15T21:55:31.334Z,64.10
